Osakis, Minnesota
Current Conditions -  °F | °C
As of 8:05 AM on Monday 24 Nov 2014 (Local Time) from KAXN Reporting Station
Light Snow Light Snow  
Wind Chill: -6°   Ceiling: 2400
Heat Index: 13°   Visibility: 2mi
Dew Point:   Wind: 23mph
Humidity: 77%   Direction: 320°NW
Pressure: 29.51"   Gusts: 35mph
Location:  45.87°N, 95.15°W
Report Text: KAXN 241405Z AUTO 32020G30KT 2SM -SN SCT015 OVC024 M11/M14 A2951 RMK AO2 PK WND 32030/1359 VIS 1 1/4V5 P0000 T11061139
Loading
Personal Weather Stations






























Interactive Weather Map New forecast layout! Learn more

10-Day Weather Forecast

Advertisements
Track Severe Weather on mobile